sensor_id;sensor_type;location;lat;lon;timestamp;temperature;humidity
6293;DHT22;3179;54.350;10.102;2022-11-15T00:00:54;9.50;99.90
6293;DHT22;3179;54.350;10.102;2022-11-15T00:03:22;9.50;99.90
6293;DHT22;3179;54.350;10.102;2022-11-15T00:05:50;9.50;99.90
6293;DHT22;3179;54.350;10.102;2022-11-15T00:08:17;9.60;99.90
6293;DHT22;3179;54.350;10.102;2022-11-15T00:10:54;9.60;99.90
6293;DHT22;3179;54.350;10.102;2022-11-15T00:13:21;9.50;99.90
6293;DHT22;3179;54.350;10.102;2022-11-15T00:15:47;9.50;99.90
6293;DHT22;3179;54.350;10.102;2022-11-15T00:18:16;9.50;99.90
6293;DHT22;3179;54.350;10.102;2022-11-15T00:20:44;9.50;99.90
6293;DHT22;3179;54.350;10.102;2022-11-15T00:23:11;9.50;99.90
6293;DHT22;3179;54.350;10.102;2022-11-15T00:25:37;9.50;99.90
6293;DHT22;3179;54.350;10.102;2022-11-15T00:28:04;9.60;99.90
6293;DHT22;3179;54.350;10.102;2022-11-15T00:30:31;9.60;99.90
6293;DHT22;3179;54.350;10.102;2022-11-15T00:33:02;9.60;99.90
6293;DHT22;3179;54.350;10.102;2022-11-15T00:35:31;9.60;99.90
6293;DHT22;3179;54.350;10.102;2022-11-15T00:37:58;9.60;99.90
6293;DHT22;3179;54.350;10.102;2022-11-15T00:40:25;9.60;99.90
6293;DHT22;3179;54.350;10.102;2022-11-15T00:42:52;9.60;99.90
6293;DHT22;3179;54.350;10.102;2022-11-15T00:45:18;9.50;99.90
6293;DHT22;3179;54.350;10.102;2022-11-15T00:47:45;9.60;99.90
6293;DHT22;3179;54.350;10.102;2022-11-15T00:50:13;9.50;99.90
6293;DHT22;3179;54.350;10.102;2022-11-15T00:52:41;9.50;99.90
6293;DHT22;3179;54.350;10.102;2022-11-15T00:55:09;9.50;99.90
6293;DHT22;3179;54.350;10.102;2022-11-15T00:57:39;9.60;99.90
6293;DHT22;3179;54.350;10.102;2022-11-15T01:00:07;9.50;99.90
6293;DHT22;3179;54.350;10.102;2022-11-15T01:02:34;9.50;99.90
6293;DHT22;3179;54.350;10.102;2022-11-15T01:05:01;9.50;99.90
6293;DHT22;3179;54.350;10.102;2022-11-15T01:07:28;9.50;99.90
6293;DHT22;3179;54.350;10.102;2022-11-15T01:09:56;9.50;99.90
6293;DHT22;3179;54.350;10.102;2022-11-15T01:12:22;9.50;99.90
6293;DHT22;3179;54.350;10.102;2022-11-15T01:14:49;9.50;99.90
6293;DHT22;3179;54.350;10.102;2022-11-15T01:17:16;9.50;99.90
6293;DHT22;3179;54.350;10.102;2022-11-15T01:19:43;9.50;99.90
6293;DHT22;3179;54.350;10.102;2022-11-15T01:22:09;9.50;99.90
6293;DHT22;3179;54.350;10.102;2022-11-15T01:24:36;9.50;99.90
6293;DHT22;3179;54.350;10.102;2022-11-15T01:27:04;9.50;99.90
6293;DHT22;3179;54.350;10.102;2022-11-15T01:29:31;9.50;99.90
6293;DHT22;3179;54.350;10.102;2022-11-15T01:31:58;9.50;99.90
6293;DHT22;3179;54.350;10.102;2022-11-15T01:34:25;9.50;99.90
6293;DHT22;3179;54.350;10.102;2022-11-15T01:36:51;9.50;99.90
6293;DHT22;3179;54.350;10.102;2022-11-15T01:39:18;9.50;99.90
6293;DHT22;3179;54.350;10.102;2022-11-15T01:41:45;9.50;99.90
6293;DHT22;3179;54.350;10.102;2022-11-15T01:44:37;9.50;99.90
6293;DHT22;3179;54.350;10.102;2022-11-15T01:47:09;9.50;99.90
6293;DHT22;3179;54.350;10.102;2022-11-15T01:49:39;9.50;99.90
6293;DHT22;3179;54.350;10.102;2022-11-15T01:52:09;9.50;99.90
6293;DHT22;3179;54.350;10.102;2022-11-15T01:54:36;9.50;99.90
6293;DHT22;3179;54.350;10.102;2022-11-15T01:57:06;9.50;99.90
6293;DHT22;3179;54.350;10.102;2022-11-15T01:59:36;9.50;99.90
6293;DHT22;3179;54.350;10.102;2022-11-15T02:02:03;9.50;99.90
6293;DHT22;3179;54.350;10.102;2022-11-15T02:04:32;9.50;99.90
6293;DHT22;3179;54.350;10.102;2022-11-15T02:07:02;9.50;99.90
6293;DHT22;3179;54.350;10.102;2022-11-15T02:09:29;9.50;99.90
6293;DHT22;3179;54.350;10.102;2022-11-15T02:11:57;9.50;99.90
6293;DHT22;3179;54.350;10.102;2022-11-15T02:14:26;9.50;99.90
6293;DHT22;3179;54.350;10.102;2022-11-15T02:16:59;9.50;99.90
6293;DHT22;3179;54.350;10.102;2022-11-15T02:19:52;9.50;99.90
6293;DHT22;3179;54.350;10.102;2022-11-15T02:22:37;9.50;99.90
6293;DHT22;3179;54.350;10.102;2022-11-15T02:25:23;9.50;99.90
6293;DHT22;3179;54.350;10.102;2022-11-15T02:28:13;9.50;99.90
6293;DHT22;3179;54.350;10.102;2022-11-15T02:30:45;9.60;99.90
6293;DHT22;3179;54.350;10.102;2022-11-15T02:33:25;9.50;99.90
6293;DHT22;3179;54.350;10.102;2022-11-15T02:35:58;9.50;99.90
6293;DHT22;3179;54.350;10.102;2022-11-15T02:38:31;9.50;99.90
6293;DHT22;3179;54.350;10.102;2022-11-15T02:41:02;9.60;99.90
6293;DHT22;3179;54.350;10.102;2022-11-15T02:43:35;9.50;99.90
6293;DHT22;3179;54.350;10.102;2022-11-15T02:46:26;9.50;99.90
6293;DHT22;3179;54.350;10.102;2022-11-15T02:49:14;9.50;99.90
6293;DHT22;3179;54.350;10.102;2022-11-15T02:51:43;9.50;99.90
6293;DHT22;3179;54.350;10.102;2022-11-15T02:54:12;9.50;99.90
6293;DHT22;3179;54.350;10.102;2022-11-15T02:56:40;9.50;99.90
6293;DHT22;3179;54.350;10.102;2022-11-15T02:59:18;9.50;99.90
6293;DHT22;3179;54.350;10.102;2022-11-15T03:02:00;9.50;99.90
6293;DHT22;3179;54.350;10.102;2022-11-15T03:04:37;9.50;99.90
6293;DHT22;3179;54.350;10.102;2022-11-15T03:07:12;9.50;99.90
6293;DHT22;3179;54.350;10.102;2022-11-15T03:09:44;9.50;99.90
6293;DHT22;3179;54.350;10.102;2022-11-15T03:12:14;9.50;99.90
6293;DHT22;3179;54.350;10.102;2022-11-15T03:14:49;9.50;99.90
6293;DHT22;3179;54.350;10.102;2022-11-15T03:17:24;9.50;99.90
6293;DHT22;3179;54.350;10.102;2022-11-15T03:19:54;9.50;99.90
6293;DHT22;3179;54.350;10.102;2022-11-15T03:22:24;9.50;99.90
6293;DHT22;3179;54.350;10.102;2022-11-15T03:24:57;9.50;99.90
6293;DHT22;3179;54.350;10.102;2022-11-15T03:27:28;9.50;99.90
6293;DHT22;3179;54.350;10.102;2022-11-15T03:30:00;9.40;99.90
6293;DHT22;3179;54.350;10.102;2022-11-15T03:32:31;9.40;99.90
6293;DHT22;3179;54.350;10.102;2022-11-15T03:35:02;9.40;99.90
6293;DHT22;3179;54.350;10.102;2022-11-15T03:37:34;9.40;99.90
6293;DHT22;3179;54.350;10.102;2022-11-15T03:40:03;9.40;99.90
6293;DHT22;3179;54.350;10.102;2022-11-15T03:42:34;9.40;99.90
6293;DHT22;3179;54.350;10.102;2022-11-15T03:45:10;9.40;99.90
6293;DHT22;3179;54.350;10.102;2022-11-15T03:47:44;9.40;99.90
6293;DHT22;3179;54.350;10.102;2022-11-15T03:50:13;9.30;99.90
6293;DHT22;3179;54.350;10.102;2022-11-15T03:52:42;9.30;99.90
6293;DHT22;3179;54.350;10.102;2022-11-15T03:55:14;9.30;99.90
6293;DHT22;3179;54.350;10.102;2022-11-15T03:57:42;9.40;99.90
6293;DHT22;3179;54.350;10.102;2022-11-15T04:00:09;9.40;99.90
6293;DHT22;3179;54.350;10.102;2022-11-15T04:02:36;9.40;99.90
6293;DHT22;3179;54.350;10.102;2022-11-15T04:05:05;9.30;99.90
6293;DHT22;3179;54.350;10.102;2022-11-15T04:07:32;9.30;99.90
6293;DHT22;3179;54.350;10.102;2022-11-15T04:09:59;9.30;99.90
6293;DHT22;3179;54.350;10.102;2022-11-15T04:12:28;9.30;99.90
6293;DHT22;3179;54.350;10.102;2022-11-15T04:14:59;9.30;99.90
6293;DHT22;3179;54.350;10.102;2022-11-15T04:17:37;9.40;99.90
6293;DHT22;3179;54.350;10.102;2022-11-15T04:20:08;9.30;99.90
6293;DHT22;3179;54.350;10.102;2022-11-15T04:22:53;9.30;99.90
6293;DHT22;3179;54.350;10.102;2022-11-15T04:25:37;9.30;99.90
6293;DHT22;3179;54.350;10.102;2022-11-15T04:28:04;9.30;99.90
6293;DHT22;3179;54.350;10.102;2022-11-15T04:30:31;9.30;99.90
6293;DHT22;3179;54.350;10.102;2022-11-15T04:32:57;9.30;99.90
6293;DHT22;3179;54.350;10.102;2022-11-15T04:35:26;9.30;99.90
6293;DHT22;3179;54.350;10.102;2022-11-15T04:37:52;9.30;99.90
6293;DHT22;3179;54.350;10.102;2022-11-15T04:40:18;9.20;99.90
6293;DHT22;3179;54.350;10.102;2022-11-15T04:42:45;9.30;99.90
6293;DHT22;3179;54.350;10.102;2022-11-15T04:45:12;9.30;99.90
6293;DHT22;3179;54.350;10.102;2022-11-15T04:47:39;9.30;99.90
6293;DHT22;3179;54.350;10.102;2022-11-15T04:50:06;9.30;99.90
6293;DHT22;3179;54.350;10.102;2022-11-15T04:52:34;9.30;99.90
6293;DHT22;3179;54.350;10.102;2022-11-15T04:55:01;9.30;99.90
6293;DHT22;3179;54.350;10.102;2022-11-15T04:57:28;9.20;99.90
6293;DHT22;3179;54.350;10.102;2022-11-15T04:59:54;9.20;99.90
6293;DHT22;3179;54.350;10.102;2022-11-15T05:02:21;9.20;99.90
6293;DHT22;3179;54.350;10.102;2022-11-15T05:04:48;9.20;99.90
6293;DHT22;3179;54.350;10.102;2022-11-15T05:07:14;9.30;99.90
6293;DHT22;3179;54.350;10.102;2022-11-15T05:09:42;9.20;99.90
6293;DHT22;3179;54.350;10.102;2022-11-15T05:12:08;9.20;99.90
6293;DHT22;3179;54.350;10.102;2022-11-15T05:14:35;9.20;99.90
6293;DHT22;3179;54.350;10.102;2022-11-15T05:17:02;9.20;99.90
6293;DHT22;3179;54.350;10.102;2022-11-15T05:19:29;9.20;99.90
6293;DHT22;3179;54.350;10.102;2022-11-15T05:21:55;9.20;99.90
6293;DHT22;3179;54.350;10.102;2022-11-15T05:24:22;9.20;99.90
6293;DHT22;3179;54.350;10.102;2022-11-15T05:26:50;9.20;99.90
6293;DHT22;3179;54.350;10.102;2022-11-15T05:29:17;9.20;99.90
6293;DHT22;3179;54.350;10.102;2022-11-15T05:31:44;9.20;99.90
6293;DHT22;3179;54.350;10.102;2022-11-15T05:34:10;9.20;99.90
6293;DHT22;3179;54.350;10.102;2022-11-15T05:36:40;9.20;99.90
6293;DHT22;3179;54.350;10.102;2022-11-15T05:39:08;9.20;99.90
6293;DHT22;3179;54.350;10.102;2022-11-15T05:41:39;9.10;99.90
6293;DHT22;3179;54.350;10.102;2022-11-15T05:44:10;9.10;99.90
6293;DHT22;3179;54.350;10.102;2022-11-15T05:46:39;9.10;99.90
6293;DHT22;3179;54.350;10.102;2022-11-15T05:49:10;9.10;99.90
6293;DHT22;3179;54.350;10.102;2022-11-15T05:51:39;9.10;99.90
6293;DHT22;3179;54.350;10.102;2022-11-15T05:54:05;9.10;99.90
6293;DHT22;3179;54.350;10.102;2022-11-15T05:56:32;9.10;99.90
6293;DHT22;3179;54.350;10.102;2022-11-15T05:58:59;9.10;99.90
6293;DHT22;3179;54.350;10.102;2022-11-15T06:01:27;9.10;99.90
6293;DHT22;3179;54.350;10.102;2022-11-15T06:03:54;9.20;99.90
6293;DHT22;3179;54.350;10.102;2022-11-15T06:06:21;9.20;99.90
6293;DHT22;3179;54.350;10.102;2022-11-15T06:08:48;9.20;99.90
6293;DHT22;3179;54.350;10.102;2022-11-15T06:11:14;9.20;99.90
6293;DHT22;3179;54.350;10.102;2022-11-15T06:13:41;9.20;99.90
6293;DHT22;3179;54.350;10.102;2022-11-15T06:16:08;9.20;99.90
6293;DHT22;3179;54.350;10.102;2022-11-15T06:18:36;9.20;99.90
6293;DHT22;3179;54.350;10.102;2022-11-15T06:21:03;9.30;99.90
6293;DHT22;3179;54.350;10.102;2022-11-15T06:23:32;9.30;99.90
6293;DHT22;3179;54.350;10.102;2022-11-15T06:25:59;9.30;99.90
6293;DHT22;3179;54.350;10.102;2022-11-15T06:28:28;9.30;99.90
6293;DHT22;3179;54.350;10.102;2022-11-15T06:30:55;9.30;99.90
6293;DHT22;3179;54.350;10.102;2022-11-15T06:33:25;9.30;99.90
6293;DHT22;3179;54.350;10.102;2022-11-15T06:35:53;9.30;99.90
6293;DHT22;3179;54.350;10.102;2022-11-15T06:38:20;9.30;99.90
6293;DHT22;3179;54.350;10.102;2022-11-15T06:40:47;9.30;99.90
6293;DHT22;3179;54.350;10.102;2022-11-15T06:43:14;9.30;99.90
6293;DHT22;3179;54.350;10.102;2022-11-15T06:45:41;9.30;99.90
6293;DHT22;3179;54.350;10.102;2022-11-15T06:48:07;9.30;99.90
6293;DHT22;3179;54.350;10.102;2022-11-15T06:50:34;9.40;99.90
6293;DHT22;3179;54.350;10.102;2022-11-15T06:53:03;9.40;99.90
6293;DHT22;3179;54.350;10.102;2022-11-15T06:55:30;9.40;99.90
6293;DHT22;3179;54.350;10.102;2022-11-15T06:57:57;9.40;99.90
6293;DHT22;3179;54.350;10.102;2022-11-15T07:00:23;9.40;99.90
6293;DHT22;3179;54.350;10.102;2022-11-15T07:02:50;9.40;99.90
6293;DHT22;3179;54.350;10.102;2022-11-15T07:05:17;9.40;99.90
6293;DHT22;3179;54.350;10.102;2022-11-15T07:07:51;9.40;99.90
6293;DHT22;3179;54.350;10.102;2022-11-15T07:10:19;9.40;99.90
6293;DHT22;3179;54.350;10.102;2022-11-15T07:12:47;9.40;99.90
6293;DHT22;3179;54.350;10.102;2022-11-15T07:15:14;9.40;99.90
6293;DHT22;3179;54.350;10.102;2022-11-15T07:17:41;9.40;99.90
6293;DHT22;3179;54.350;10.102;2022-11-15T07:20:08;9.40;99.90
6293;DHT22;3179;54.350;10.102;2022-11-15T07:22:35;9.40;99.90
6293;DHT22;3179;54.350;10.102;2022-11-15T07:25:02;9.40;99.90
6293;DHT22;3179;54.350;10.102;2022-11-15T07:27:30;9.40;99.90
6293;DHT22;3179;54.350;10.102;2022-11-15T07:29:57;9.40;99.90
6293;DHT22;3179;54.350;10.102;2022-11-15T07:32:23;9.40;99.90
6293;DHT22;3179;54.350;10.102;2022-11-15T07:34:50;9.50;99.90
6293;DHT22;3179;54.350;10.102;2022-11-15T07:37:17;9.50;99.90
6293;DHT22;3179;54.350;10.102;2022-11-15T07:39:44;9.50;99.90
6293;DHT22;3179;54.350;10.102;2022-11-15T07:42:11;9.50;99.90
6293;DHT22;3179;54.350;10.102;2022-11-15T07:44:57;9.50;99.90
6293;DHT22;3179;54.350;10.102;2022-11-15T07:47:23;9.50;99.90
6293;DHT22;3179;54.350;10.102;2022-11-15T07:49:55;9.50;99.90
6293;DHT22;3179;54.350;10.102;2022-11-15T07:52:22;9.50;99.90
6293;DHT22;3179;54.350;10.102;2022-11-15T07:54:50;9.60;99.90
6293;DHT22;3179;54.350;10.102;2022-11-15T07:57:17;9.60;99.90
6293;DHT22;3179;54.350;10.102;2022-11-15T07:59:44;9.60;99.90
6293;DHT22;3179;54.350;10.102;2022-11-15T08:02:13;9.60;99.90
6293;DHT22;3179;54.350;10.102;2022-11-15T08:04:42;9.60;99.90
6293;DHT22;3179;54.350;10.102;2022-11-15T08:07:09;9.70;99.90
6293;DHT22;3179;54.350;10.102;2022-11-15T08:09:36;9.70;99.90
6293;DHT22;3179;54.350;10.102;2022-11-15T08:12:03;9.70;99.90
6293;DHT22;3179;54.350;10.102;2022-11-15T08:14:30;9.70;99.90
6293;DHT22;3179;54.350;10.102;2022-11-15T08:16:57;9.70;99.90
6293;DHT22;3179;54.350;10.102;2022-11-15T08:19:26;9.70;99.90
6293;DHT22;3179;54.350;10.102;2022-11-15T08:21:56;9.70;99.90
6293;DHT22;3179;54.350;10.102;2022-11-15T08:24:23;9.70;99.90
6293;DHT22;3179;54.350;10.102;2022-11-15T08:26:49;9.70;99.90
6293;DHT22;3179;54.350;10.102;2022-11-15T08:29:18;9.70;99.90
6293;DHT22;3179;54.350;10.102;2022-11-15T08:31:45;9.70;99.90
6293;DHT22;3179;54.350;10.102;2022-11-15T08:34:12;9.70;99.90
6293;DHT22;3179;54.350;10.102;2022-11-15T08:36:40;9.80;99.90
6293;DHT22;3179;54.350;10.102;2022-11-15T08:39:10;9.70;99.90
6293;DHT22;3179;54.350;10.102;2022-11-15T08:41:38;9.70;99.90
6293;DHT22;3179;54.350;10.102;2022-11-15T08:44:05;9.80;99.90
6293;DHT22;3179;54.350;10.102;2022-11-15T08:46:32;9.70;99.90
6293;DHT22;3179;54.350;10.102;2022-11-15T08:48:59;9.80;99.90
6293;DHT22;3179;54.350;10.102;2022-11-15T08:51:26;9.80;99.90
6293;DHT22;3179;54.350;10.102;2022-11-15T08:53:58;9.80;99.90
6293;DHT22;3179;54.350;10.102;2022-11-15T08:56:25;9.90;99.90
6293;DHT22;3179;54.350;10.102;2022-11-15T09:01:27;9.90;99.90
6293;DHT22;3179;54.350;10.102;2022-11-15T09:03:54;9.90;99.90
6293;DHT22;3179;54.350;10.102;2022-11-15T09:06:20;9.90;99.90
6293;DHT22;3179;54.350;10.102;2022-11-15T09:08:47;9.90;99.90
6293;DHT22;3179;54.350;10.102;2022-11-15T09:11:16;9.90;99.90
6293;DHT22;3179;54.350;10.102;2022-11-15T09:13:45;9.90;99.90
6293;DHT22;3179;54.350;10.102;2022-11-15T09:16:12;9.90;99.90
6293;DHT22;3179;54.350;10.102;2022-11-15T09:18:40;9.90;99.90
6293;DHT22;3179;54.350;10.102;2022-11-15T09:21:08;9.90;99.90
6293;DHT22;3179;54.350;10.102;2022-11-15T09:23:35;9.90;99.90
6293;DHT22;3179;54.350;10.102;2022-11-15T09:26:03;9.90;99.90
6293;DHT22;3179;54.350;10.102;2022-11-15T09:28:32;10.00;99.90
6293;DHT22;3179;54.350;10.102;2022-11-15T09:31:00;10.00;99.90
6293;DHT22;3179;54.350;10.102;2022-11-15T09:33:28;10.00;99.90
6293;DHT22;3179;54.350;10.102;2022-11-15T09:35:59;10.10;99.90
6293;DHT22;3179;54.350;10.102;2022-11-15T09:38:26;10.10;99.90
6293;DHT22;3179;54.350;10.102;2022-11-15T09:41:14;10.10;99.90
6293;DHT22;3179;54.350;10.102;2022-11-15T09:43:50;10.10;99.90
6293;DHT22;3179;54.350;10.102;2022-11-15T09:46:22;10.10;99.90
6293;DHT22;3179;54.350;10.102;2022-11-15T09:48:53;10.10;99.90
6293;DHT22;3179;54.350;10.102;2022-11-15T09:51:26;10.10;99.90
6293;DHT22;3179;54.350;10.102;2022-11-15T09:54:00;10.10;99.90
6293;DHT22;3179;54.350;10.102;2022-11-15T09:56:30;10.10;99.90
6293;DHT22;3179;54.350;10.102;2022-11-15T09:59:08;10.20;99.90
6293;DHT22;3179;54.350;10.102;2022-11-15T10:01:47;10.20;99.90
6293;DHT22;3179;54.350;10.102;2022-11-15T10:04:17;10.20;99.90
6293;DHT22;3179;54.350;10.102;2022-11-15T10:06:49;10.20;99.90
6293;DHT22;3179;54.350;10.102;2022-11-15T10:09:23;10.20;99.90
6293;DHT22;3179;54.350;10.102;2022-11-15T10:11:51;10.20;99.90
6293;DHT22;3179;54.350;10.102;2022-11-15T10:14:20;10.20;99.90
6293;DHT22;3179;54.350;10.102;2022-11-15T10:17:21;10.20;99.90
6293;DHT22;3179;54.350;10.102;2022-11-15T10:20:00;10.30;99.90
6293;DHT22;3179;54.350;10.102;2022-11-15T10:22:30;10.30;99.90
6293;DHT22;3179;54.350;10.102;2022-11-15T10:25:10;10.30;99.90
6293;DHT22;3179;54.350;10.102;2022-11-15T10:27:39;10.30;99.90
6293;DHT22;3179;54.350;10.102;2022-11-15T10:30:12;10.30;99.90
6293;DHT22;3179;54.350;10.102;2022-11-15T10:32:41;10.30;99.90
6293;DHT22;3179;54.350;10.102;2022-11-15T10:35:17;10.30;99.90
6293;DHT22;3179;54.350;10.102;2022-11-15T10:37:44;10.40;99.90
6293;DHT22;3179;54.350;10.102;2022-11-15T10:40:16;10.40;99.90
6293;DHT22;3179;54.350;10.102;2022-11-15T10:42:44;10.40;99.90
6293;DHT22;3179;54.350;10.102;2022-11-15T10:45:25;10.40;99.90
6293;DHT22;3179;54.350;10.102;2022-11-15T10:47:53;10.40;99.90
6293;DHT22;3179;54.350;10.102;2022-11-15T10:50:31;10.40;99.90
6293;DHT22;3179;54.350;10.102;2022-11-15T10:52:59;10.40;99.90
6293;DHT22;3179;54.350;10.102;2022-11-15T10:55:30;10.40;99.90
6293;DHT22;3179;54.350;10.102;2022-11-15T10:58:02;10.40;99.90
6293;DHT22;3179;54.350;10.102;2022-11-15T11:00:34;10.40;99.90
6293;DHT22;3179;54.350;10.102;2022-11-15T11:03:04;10.40;99.90
6293;DHT22;3179;54.350;10.102;2022-11-15T11:05:33;10.40;99.90
6293;DHT22;3179;54.350;10.102;2022-11-15T11:08:04;10.40;99.90
6293;DHT22;3179;54.350;10.102;2022-11-15T11:10:31;10.40;99.90
6293;DHT22;3179;54.350;10.102;2022-11-15T11:13:13;10.40;99.90
6293;DHT22;3179;54.350;10.102;2022-11-15T11:15:44;10.50;99.90
6293;DHT22;3179;54.350;10.102;2022-11-15T11:18:18;10.40;99.90
6293;DHT22;3179;54.350;10.102;2022-11-15T11:20:51;10.50;99.90
6293;DHT22;3179;54.350;10.102;2022-11-15T11:23:38;10.50;99.90
6293;DHT22;3179;54.350;10.102;2022-11-15T11:26:18;10.50;99.90
6293;DHT22;3179;54.350;10.102;2022-11-15T11:28:59;10.50;99.90
6293;DHT22;3179;54.350;10.102;2022-11-15T11:31:35;10.50;99.90
6293;DHT22;3179;54.350;10.102;2022-11-15T11:34:15;10.50;99.90
6293;DHT22;3179;54.350;10.102;2022-11-15T11:36:48;10.50;99.90
6293;DHT22;3179;54.350;10.102;2022-11-15T11:39:25;10.50;99.90
6293;DHT22;3179;54.350;10.102;2022-11-15T11:42:03;10.50;99.90
6293;DHT22;3179;54.350;10.102;2022-11-15T11:44:45;10.50;99.90
6293;DHT22;3179;54.350;10.102;2022-11-15T11:47:21;10.60;99.90
6293;DHT22;3179;54.350;10.102;2022-11-15T11:49:51;10.60;99.90
6293;DHT22;3179;54.350;10.102;2022-11-15T11:52:24;10.60;99.90
6293;DHT22;3179;54.350;10.102;2022-11-15T11:55:00;10.60;99.90
6293;DHT22;3179;54.350;10.102;2022-11-15T11:57:37;10.60;99.90
6293;DHT22;3179;54.350;10.102;2022-11-15T12:00:14;10.60;99.90
6293;DHT22;3179;54.350;10.102;2022-11-15T12:02:46;10.70;99.90
6293;DHT22;3179;54.350;10.102;2022-11-15T12:05:18;10.60;99.90
6293;DHT22;3179;54.350;10.102;2022-11-15T12:07:47;10.60;99.90
6293;DHT22;3179;54.350;10.102;2022-11-15T12:10:20;10.70;99.90
6293;DHT22;3179;54.350;10.102;2022-11-15T12:12:55;10.70;99.90
6293;DHT22;3179;54.350;10.102;2022-11-15T12:15:25;10.70;99.90
6293;DHT22;3179;54.350;10.102;2022-11-15T12:17:57;10.70;99.90
6293;DHT22;3179;54.350;10.102;2022-11-15T12:20:32;10.70;99.90
6293;DHT22;3179;54.350;10.102;2022-11-15T12:23:04;10.70;99.90
6293;DHT22;3179;54.350;10.102;2022-11-15T12:25:40;10.80;99.90
6293;DHT22;3179;54.350;10.102;2022-11-15T12:28:16;10.70;99.90
6293;DHT22;3179;54.350;10.102;2022-11-15T12:30:49;10.80;99.90
6293;DHT22;3179;54.350;10.102;2022-11-15T12:33:35;10.80;99.90
6293;DHT22;3179;54.350;10.102;2022-11-15T12:36:05;10.90;99.90
6293;DHT22;3179;54.350;10.102;2022-11-15T12:38:54;10.80;99.90
6293;DHT22;3179;54.350;10.102;2022-11-15T12:41:22;10.90;99.90
6293;DHT22;3179;54.350;10.102;2022-11-15T12:43:50;10.90;99.90
6293;DHT22;3179;54.350;10.102;2022-11-15T12:46:23;10.90;99.90
6293;DHT22;3179;54.350;10.102;2022-11-15T12:48:56;10.90;99.90
6293;DHT22;3179;54.350;10.102;2022-11-15T12:55:00;10.90;99.90
6293;DHT22;3179;54.350;10.102;2022-11-15T12:57:30;10.90;99.90
6293;DHT22;3179;54.350;10.102;2022-11-15T12:59:59;10.90;99.90
6293;DHT22;3179;54.350;10.102;2022-11-15T13:02:30;10.90;99.90
6293;DHT22;3179;54.350;10.102;2022-11-15T13:07:59;10.90;99.90
6293;DHT22;3179;54.350;10.102;2022-11-15T13:10:31;10.90;99.90
6293;DHT22;3179;54.350;10.102;2022-11-15T13:12:59;10.90;99.90
6293;DHT22;3179;54.350;10.102;2022-11-15T13:15:53;10.90;99.90
6293;DHT22;3179;54.350;10.102;2022-11-15T13:18:42;10.90;99.90
6293;DHT22;3179;54.350;10.102;2022-11-15T13:21:21;10.90;99.90
6293;DHT22;3179;54.350;10.102;2022-11-15T13:24:13;10.90;99.90
6293;DHT22;3179;54.350;10.102;2022-11-15T13:26:40;10.90;99.90
6293;DHT22;3179;54.350;10.102;2022-11-15T13:29:16;10.90;99.90
6293;DHT22;3179;54.350;10.102;2022-11-15T13:31:44;10.90;99.90
6293;DHT22;3179;54.350;10.102;2022-11-15T13:34:20;10.90;99.90
6293;DHT22;3179;54.350;10.102;2022-11-15T13:36:52;11.00;99.90
6293;DHT22;3179;54.350;10.102;2022-11-15T13:39:29;11.00;99.90
6293;DHT22;3179;54.350;10.102;2022-11-15T13:41:57;10.90;99.90
6293;DHT22;3179;54.350;10.102;2022-11-15T13:44:25;10.90;99.90
6293;DHT22;3179;54.350;10.102;2022-11-15T13:47:04;11.00;99.90
6293;DHT22;3179;54.350;10.102;2022-11-15T13:49:33;11.00;99.90
6293;DHT22;3179;54.350;10.102;2022-11-15T13:52:01;11.00;99.90
6293;DHT22;3179;54.350;10.102;2022-11-15T13:54:32;11.00;99.90
6293;DHT22;3179;54.350;10.102;2022-11-15T13:57:03;11.00;99.90
6293;DHT22;3179;54.350;10.102;2022-11-15T13:59:33;11.00;99.90
6293;DHT22;3179;54.350;10.102;2022-11-15T14:02:09;11.10;99.90
6293;DHT22;3179;54.350;10.102;2022-11-15T14:05:02;11.10;99.90
6293;DHT22;3179;54.350;10.102;2022-11-15T14:07:29;11.10;99.90
6293;DHT22;3179;54.350;10.102;2022-11-15T14:10:17;11.10;99.90
6293;DHT22;3179;54.350;10.102;2022-11-15T14:12:50;11.10;99.90
6293;DHT22;3179;54.350;10.102;2022-11-15T14:15:28;11.10;99.90
6293;DHT22;3179;54.350;10.102;2022-11-15T14:17:55;11.10;99.90
6293;DHT22;3179;54.350;10.102;2022-11-15T14:20:32;11.20;99.90
6293;DHT22;3179;54.350;10.102;2022-11-15T14:23:01;11.10;99.90
6293;DHT22;3179;54.350;10.102;2022-11-15T14:25:31;11.20;99.90
6293;DHT22;3179;54.350;10.102;2022-11-15T14:28:14;11.20;99.90
6293;DHT22;3179;54.350;10.102;2022-11-15T14:30:42;11.20;99.90
6293;DHT22;3179;54.350;10.102;2022-11-15T14:33:20;11.20;99.90
6293;DHT22;3179;54.350;10.102;2022-11-15T14:35:47;11.20;99.90
6293;DHT22;3179;54.350;10.102;2022-11-15T14:38:14;11.20;99.90
6293;DHT22;3179;54.350;10.102;2022-11-15T14:40:43;11.20;99.90
6293;DHT22;3179;54.350;10.102;2022-11-15T14:43:11;11.20;99.90
6293;DHT22;3179;54.350;10.102;2022-11-15T14:45:39;11.20;99.90
6293;DHT22;3179;54.350;10.102;2022-11-15T14:48:15;11.20;99.90
6293;DHT22;3179;54.350;10.102;2022-11-15T14:50:45;11.20;99.90
6293;DHT22;3179;54.350;10.102;2022-11-15T14:53:15;11.20;99.90
6293;DHT22;3179;54.350;10.102;2022-11-15T14:55:45;11.20;99.90
6293;DHT22;3179;54.350;10.102;2022-11-15T14:58:12;11.20;99.90
6293;DHT22;3179;54.350;10.102;2022-11-15T15:00:40;11.30;99.90
6293;DHT22;3179;54.350;10.102;2022-11-15T15:03:07;11.30;99.90
6293;DHT22;3179;54.350;10.102;2022-11-15T15:05:36;11.30;99.90
6293;DHT22;3179;54.350;10.102;2022-11-15T15:08:04;11.30;99.90
6293;DHT22;3179;54.350;10.102;2022-11-15T15:10:32;11.30;99.90
6293;DHT22;3179;54.350;10.102;2022-11-15T15:13:01;11.30;99.90
6293;DHT22;3179;54.350;10.102;2022-11-15T15:15:34;11.20;99.90
6293;DHT22;3179;54.350;10.102;2022-11-15T15:18:02;11.20;99.90
6293;DHT22;3179;54.350;10.102;2022-11-15T15:20:30;11.20;99.90
6293;DHT22;3179;54.350;10.102;2022-11-15T15:22:57;11.20;99.90
6293;DHT22;3179;54.350;10.102;2022-11-15T15:25:27;11.20;99.90
6293;DHT22;3179;54.350;10.102;2022-11-15T15:27:54;11.20;99.90
6293;DHT22;3179;54.350;10.102;2022-11-15T15:30:26;11.20;99.90
6293;DHT22;3179;54.350;10.102;2022-11-15T15:32:57;11.20;99.90
6293;DHT22;3179;54.350;10.102;2022-11-15T15:35:27;11.20;99.90
6293;DHT22;3179;54.350;10.102;2022-11-15T15:37:55;11.20;99.90
6293;DHT22;3179;54.350;10.102;2022-11-15T15:40:24;11.20;99.90
6293;DHT22;3179;54.350;10.102;2022-11-15T15:42:51;11.10;99.90
6293;DHT22;3179;54.350;10.102;2022-11-15T15:45:18;11.20;99.90
6293;DHT22;3179;54.350;10.102;2022-11-15T15:47:47;11.20;99.90
6293;DHT22;3179;54.350;10.102;2022-11-15T15:50:20;11.10;99.90
6293;DHT22;3179;54.350;10.102;2022-11-15T15:52:48;11.10;99.90
6293;DHT22;3179;54.350;10.102;2022-11-15T15:55:14;11.10;99.90
6293;DHT22;3179;54.350;10.102;2022-11-15T15:57:41;11.10;99.90
6293;DHT22;3179;54.350;10.102;2022-11-15T16:00:09;11.10;99.90
6293;DHT22;3179;54.350;10.102;2022-11-15T16:02:36;11.10;99.90
6293;DHT22;3179;54.350;10.102;2022-11-15T16:05:05;11.10;99.90
6293;DHT22;3179;54.350;10.102;2022-11-15T16:07:32;11.00;99.90
6293;DHT22;3179;54.350;10.102;2022-11-15T16:09:59;11.00;99.90
6293;DHT22;3179;54.350;10.102;2022-11-15T16:12:26;11.10;99.90
6293;DHT22;3179;54.350;10.102;2022-11-15T16:14:53;11.00;99.90
6293;DHT22;3179;54.350;10.102;2022-11-15T16:17:22;11.00;99.90
6293;DHT22;3179;54.350;10.102;2022-11-15T16:19:49;11.00;99.90
6293;DHT22;3179;54.350;10.102;2022-11-15T16:22:17;11.00;99.90
6293;DHT22;3179;54.350;10.102;2022-11-15T16:24:44;11.00;99.90